Time;durP1;ratioP1;P1;durP2;ratioP2;P2;SDS_P1;SDS_P2;PMS_P1;PMS_P2;Temp;Humidity;BMP_temperature;BMP_pressure;BME280_temperature;BME280_humidity;BME280_pressure;Samples;Min_cycle;Max_cycle;Signal;HPM_P1;HPM_P2
2021/07/26 00:01:26;;;;;;;5.18;4.68;;;;;;;25.60;50.77;100068.47;5112942;28;20051;-76
2021/07/26 00:03:51;;;;;;;7.35;5.18;;;;;;;25.59;50.88;100072.59;5112639;28;20491;-75
2021/07/26 00:06:17;;;;;;;9.70;5.57;;;;;;;25.60;50.69;100079.88;5112385;28;20040;-76
2021/07/26 00:08:46;;;;;;;7.93;5.43;;;;;;;25.60;50.63;100079.88;5112406;28;20084;-79
2021/07/26 00:11:16;;;;;;;5.88;4.97;;;;;;;25.55;50.25;100065.44;5112809;28;20038;-77
2021/07/26 00:13:46;;;;;;;6.95;4.93;;;;;;;25.50;49.91;100052.59;5112637;28;20057;-75
2021/07/26 00:16:15;;;;;;;5.75;4.68;;;;;;;25.59;49.96;100058.34;5112112;28;20044;-77
2021/07/26 00:18:40;;;;;;;5.40;4.85;;;;;;;25.55;50.01;100049.16;5112322;28;20031;-79
2021/07/26 00:21:08;;;;;;;9.20;4.93;;;;;;;25.60;50.07;100050.59;5112774;28;20030;-79
2021/07/26 00:23:34;;;;;;;5.32;4.82;;;;;;;25.56;50.35;100056.41;5112608;28;20084;-80
2021/07/26 00:26:05;;;;;;;9.27;5.40;;;;;;;25.55;50.46;100054.84;5113175;28;20071;-81
2021/07/26 00:28:30;;;;;;;5.80;5.07;;;;;;;25.54;50.58;100058.16;5112543;28;20055;-77
2021/07/26 00:30:56;;;;;;;6.05;5.40;;;;;;;25.60;50.45;100062.78;5112212;28;20470;-77
2021/07/26 00:34:07;;;;;;;5.68;5.10;;;;;;;25.64;50.43;100062.63;5112686;28;20080;-78
2021/07/26 00:36:44;;;;;;;5.20;4.70;;;;;;;25.56;50.86;100062.13;5106356;28;20040;-79
2021/07/26 00:39:16;;;;;;;8.48;5.30;;;;;;;25.54;50.76;100058.97;5116128;28;20323;-76
2021/07/26 00:41:46;;;;;;;5.65;4.90;;;;;;;25.53;51.01;100057.38;5116299;28;20084;-75
2021/07/26 00:44:16;;;;;;;7.95;5.25;;;;;;;25.45;51.61;100060.97;5117515;28;20030;-76
2021/07/26 00:46:49;;;;;;;6.43;5.38;;;;;;;25.40;51.96;100059.53;5116668;28;20370;-78
2021/07/26 00:49:20;;;;;;;5.97;5.38;;;;;;;25.37;52.05;100054.00;5116857;28;20423;-78
2021/07/26 00:51:51;;;;;;;6.00;5.40;;;;;;;25.43;52.08;100047.22;5115786;28;20039;-79
2021/07/26 00:54:21;;;;;;;6.57;4.70;;;;;;;25.39;52.28;100046.56;5115785;28;20059;-79
2021/07/26 00:56:51;;;;;;;5.15;4.75;;;;;;;25.46;52.36;100051.16;5133382;27;20027;-76
2021/07/26 00:59:17;;;;;;;5.97;4.75;;;;;;;25.48;52.45;100055.13;5133074;27;20024;-78
2021/07/26 01:01:45;;;;;;;6.13;5.53;;;;;;;25.46;52.66;100046.28;5116048;28;20028;-78
2021/07/26 01:04:16;;;;;;;6.95;5.22;;;;;;;25.46;52.97;100057.69;5115806;28;20027;-77
2021/07/26 01:06:45;;;;;;;6.85;5.20;;;;;;;25.46;52.98;100056.84;5115211;27;20031;-80
2021/07/26 01:09:11;;;;;;;6.65;5.55;;;;;;;25.34;53.25;100061.41;5115748;28;20024;-77
2021/07/26 01:11:40;;;;;;;5.70;5.10;;;;;;;25.28;53.54;100052.69;5115753;28;20457;-79
2021/07/26 01:14:06;;;;;;;6.47;4.78;;;;;;;25.23;53.15;100049.66;5116359;28;20028;-80
2021/07/26 01:16:32;;;;;;;6.75;5.38;;;;;;;25.18;53.01;100050.25;5116462;28;20055;-77
2021/07/26 01:19:01;;;;;;;5.60;5.10;;;;;;;25.11;52.93;100050.53;5115558;28;20114;-77
2021/07/26 01:21:27;;;;;;;5.95;4.88;;;;;;;25.04;52.68;100055.22;5132605;27;20027;-79
2021/07/26 01:23:53;;;;;;;7.10;4.80;;;;;;;24.98;52.47;100048.56;5132861;27;20059;-79
2021/07/26 01:26:24;;;;;;;7.32;5.20;;;;;;;24.95;52.14;100049.47;5115152;28;20474;-76
2021/07/26 01:29:01;;;;;;;7.18;5.22;;;;;;;24.82;52.35;100035.34;5132255;27;20032;-79
2021/07/26 01:31:29;;;;;;;5.10;4.70;;;;;;;25.02;52.37;100062.63;5115331;28;20059;-76
2021/07/26 01:34:01;;;;;;;6.60;5.13;;;;;;;25.03;52.33;100052.81;5115273;28;20031;-80
2021/07/26 01:36:32;;;;;;;4.90;4.40;;;;;;;25.01;52.50;100063.88;5115709;28;20031;-78
2021/07/26 01:39:00;;;;;;;7.82;5.47;;;;;;;25.00;52.26;100070.84;5115168;28;20026;-79
2021/07/26 01:41:35;;;;;;;5.22;4.82;;;;;;;24.96;52.22;100059.59;5114752;28;20028;-77
2021/07/26 01:44:10;;;;;;;6.90;5.18;;;;;;;24.96;52.24;100067.34;5116005;28;20035;-79
2021/07/26 01:46:54;;;;;;;;;;;;;;;24.93;52.80;100071.09;5116490;28;20024;-77
2021/07/26 01:49:39;;;;;;;5.50;4.60;;;;;;;24.91;52.94;100067.94;5113979;28;19961;-80
2021/07/26 01:52:09;;;;;;;6.90;5.63;;;;;;;24.94;52.49;100067.81;5114579;28;20039;-76
2021/07/26 01:54:37;;;;;;;7.07;5.20;;;;;;;24.80;53.14;100062.66;5114557;28;20034;-77
2021/07/26 01:57:03;;;;;;;5.93;5.30;;;;;;;24.89;52.85;100064.78;5114533;28;20085;-79
2021/07/26 01:59:30;;;;;;;6.57;5.60;;;;;;;24.74;53.35;100064.50;5114504;28;20050;-78
2021/07/26 02:02:00;;;;;;;6.90;5.60;;;;;;;24.69;53.49;100063.03;5114308;28;20027;-76
2021/07/26 02:04:29;;;;;;;5.43;4.93;;;;;;;24.65;53.37;100061.59;5114384;28;20024;-77
2021/07/26 02:06:54;;;;;;;8.40;5.20;;;;;;;24.75;53.68;100071.78;5114312;28;20034;-76
2021/07/26 02:09:22;;;;;;;6.18;4.90;;;;;;;24.72;53.33;100072.72;5114511;28;20035;-78
2021/07/26 02:11:48;;;;;;;6.55;5.72;;;;;;;24.73;53.63;100074.31;5114205;28;20110;-78
2021/07/26 02:14:18;;;;;;;10.02;7.78;;;;;;;24.79;53.62;100078.94;5114428;28;20071;-79
2021/07/26 02:16:53;;;;;;;8.55;5.78;;;;;;;24.77;53.54;100075.75;5114342;28;20420;-77
2021/07/26 02:19:23;;;;;;;5.85;5.35;;;;;;;24.72;53.60;100072.72;5114082;28;20031;-78
2021/07/26 02:21:52;;;;;;;7.45;5.28;;;;;;;24.75;53.08;100068.94;5113948;28;20027;-78
2021/07/26 02:24:18;;;;;;;5.70;4.85;;;;;;;24.61;52.74;100058.06;5114005;28;20039;-76
2021/07/26 02:26:44;;;;;;;5.05;4.63;;;;;;;24.69;52.94;100073.63;5113924;28;20028;-78
2021/07/26 02:29:12;;;;;;;8.20;7.35;;;;;;;24.59;53.59;100069.91;5113911;28;20031;-80
2021/07/26 02:31:45;;;;;;;8.65;7.53;;;;;;;24.45;53.61;100065.56;5130963;27;20394;-76
2021/07/26 02:34:13;;;;;;;7.60;6.90;;;;;;;24.51;53.83;100069.41;5113828;28;20046;-79
2021/07/26 02:36:41;;;;;;;9.40;7.05;;;;;;;24.58;54.14;100068.34;5113712;28;20553;-80
2021/07/26 02:39:09;;;;;;;6.70;5.53;;;;;;;24.57;54.34;100069.59;5130799;27;20042;-76
2021/07/26 02:41:40;;;;;;;7.15;5.50;;;;;;;24.61;54.75;100073.13;5114144;28;20027;-80
2021/07/26 02:44:08;;;;;;;8.07;5.22;;;;;;;24.63;55.15;100075.47;5113874;28;20450;-78
2021/07/26 02:46:36;;;;;;;8.63;7.03;;;;;;;24.64;55.10;100066.47;5113816;28;20481;-76
2021/07/26 02:49:07;;;;;;;7.25;6.00;;;;;;;24.72;55.50;100064.97;5113503;28;20114;-76
2021/07/26 02:51:38;;;;;;;7.28;6.47;;;;;;;24.74;55.39;100067.34;5113983;28;20407;-80
2021/07/26 02:54:08;;;;;;;8.48;7.43;;;;;;;24.70;54.87;100061.00;5114405;28;20024;-76
2021/07/26 02:56:39;;;;;;;11.93;8.95;;;;;;;24.77;54.86;100066.44;5113369;28;20120;-75
2021/07/26 02:59:09;;;;;;;14.75;13.35;;;;;;;24.73;54.23;100068.59;5130423;27;20085;-77
2021/07/26 03:01:38;;;;;;;17.85;10.98;;;;;;;24.74;53.44;100059.59;5113716;28;20091;-79
2021/07/26 03:04:04;;;;;;;10.88;9.88;;;;;;;24.79;52.70;100049.69;5113523;28;20458;-76
2021/07/26 03:06:38;;;;;;;10.55;9.50;;;;;;;24.81;51.65;100053.63;5113241;28;20535;-76
2021/07/26 03:09:06;;;;;;;10.50;9.10;;;;;;;24.80;50.83;100051.25;5113172;28;20114;-80
2021/07/26 03:11:36;;;;;;;11.27;8.48;;;;;;;24.85;50.39;100052.72;5130773;27;20062;-77
2021/07/26 03:14:05;;;;;;;6.28;5.65;;;;;;;24.90;49.67;100054.97;5113275;28;20487;-78
2021/07/26 03:16:33;;;;;;;8.27;5.70;;;;;;;24.86;49.29;100057.16;5129731;27;20043;-79
2021/07/26 03:18:58;;;;;;;6.78;6.07;;;;;;;24.87;49.44;100058.72;5113003;28;20028;-75
2021/07/26 03:21:26;;;;;;;8.85;7.50;;;;;;;24.89;49.06;100068.41;5130259;27;20030;-76
2021/07/26 03:23:52;;;;;;;27.23;21.45;;;;;;;24.89;49.10;100059.88;5113507;28;20051;-75
2021/07/26 03:26:23;;;;;;;8.15;6.38;;;;;;;25.01;48.80;100064.69;5113462;28;20043;-76
2021/07/26 03:28:49;;;;;;;8.48;5.97;;;;;;;24.73;51.08;100054.38;5113395;28;20035;-76
2021/07/26 03:31:14;;;;;;;8.07;5.30;;;;;;;24.78;52.15;100059.47;5112836;28;20363;-80
2021/07/26 03:33:44;;;;;;;5.32;4.80;;;;;;;24.63;52.27;100047.03;5113431;28;20027;-80
2021/07/26 03:36:15;;;;;;;6.18;5.28;;;;;;;24.53;52.55;100054.69;5112836;28;20031;-76
2021/07/26 03:38:43;;;;;;;6.60;5.43;;;;;;;24.61;52.92;100064.56;5112714;28;20027;-76
2021/07/26 03:41:11;;;;;;;5.70;5.18;;;;;;;24.60;52.69;100070.72;5129778;27;20526;-80
2021/07/26 03:43:39;;;;;;;5.88;5.30;;;;;;;24.64;52.71;100065.69;5112680;28;20055;-78
2021/07/26 03:46:04;;;;;;;7.15;5.40;;;;;;;24.74;52.91;100058.81;5113169;28;20023;-75
2021/07/26 03:48:35;;;;;;;5.82;5.30;;;;;;;24.69;52.76;100068.72;5112636;28;20027;-76
2021/07/26 03:51:06;;;;;;;8.70;5.20;;;;;;;24.65;52.32;100055.91;5112589;28;20039;-79
2021/07/26 03:53:38;;;;;;;5.85;5.35;;;;;;;24.64;52.35;100062.84;5113185;28;20020;-77
2021/07/26 03:56:06;;;;;;;8.70;6.32;;;;;;;24.65;52.30;100068.06;5112857;28;20034;-79
2021/07/26 03:58:32;;;;;;;7.18;5.65;;;;;;;24.61;51.90;100061.72;5129785;28;20027;-74
2021/07/26 04:01:00;;;;;;;6.13;5.53;;;;;;;24.67;51.02;100067.63;5112437;28;20039;-78
2021/07/26 04:03:32;;;;;;;10.52;5.90;;;;;;;24.72;50.73;100067.03;5112476;28;20031;-74
2021/07/26 04:06:10;;;;;;;9.38;5.57;;;;;;;24.74;50.97;100073.03;5113029;28;20420;-75
2021/07/26 04:08:42;;;;;;;8.27;5.72;;;;;;;24.67;50.74;100073.31;5096397;28;20055;-76
2021/07/26 04:11:21;;;;;;;7.18;6.00;;;;;;;24.64;51.04;100077.06;5112690;28;20466;-79
2021/07/26 04:13:55;;;;;;;8.18;6.18;;;;;;;24.61;50.73;100087.34;5117726;28;20027;-79
2021/07/26 04:16:25;;;;;;;12.80;7.13;;;;;;;24.61;50.60;100084.50;5133287;27;20429;-75
2021/07/26 04:18:56;;;;;;;6.75;5.50;;;;;;;24.74;49.04;100092.94;5116872;28;20496;-78
2021/07/26 04:21:32;;;;;;;8.95;5.85;;;;;;;24.72;49.49;100101.97;5133424;27;20520;-76
2021/07/26 04:24:04;;;;;;;13.50;6.70;;;;;;;24.79;49.80;100115.13;5116451;28;20028;-78
2021/07/26 04:26:32;;;;;;;10.57;6.00;;;;;;;24.86;49.52;100123.38;5133597;27;20034;-78
2021/07/26 04:29:00;;;;;;;11.30;4.97;;;;;;;24.86;49.66;100117.69;5115681;28;20023;-75
2021/07/26 04:31:30;;;;;;;10.57;6.55;;;;;;;24.85;49.27;100132.38;5115801;28;20118;-75
2021/07/26 04:33:58;;;;;;;11.98;6.70;;;;;;;24.93;48.90;100142.25;5115186;28;20031;-75
2021/07/26 04:36:26;;;;;;;10.57;5.97;;;;;;;24.98;49.14;100153.84;5115160;28;20470;-75
2021/07/26 04:38:57;;;;;;;22.30;7.32;;;;;;;24.89;49.95;100167.22;5115205;28;20024;-77
2021/07/26 04:41:25;;;;;;;12.38;6.38;;;;;;;24.94;50.08;100189.38;5115062;28;20062;-76
2021/07/26 04:43:53;;;;;;;8.38;5.40;;;;;;;24.97;49.00;100186.41;5132434;27;20030;-74
2021/07/26 04:46:19;;;;;;;6.90;5.70;;;;;;;25.09;46.62;100181.94;5115355;28;20028;-77
2021/07/26 04:48:47;;;;;;;5.70;4.78;;;;;;;25.16;45.33;100175.97;5114948;28;20080;-78
2021/07/26 04:51:14;;;;;;;5.72;4.43;;;;;;;25.27;44.89;100175.59;5114509;28;20071;-78
2021/07/26 04:53:42;;;;;;;5.18;4.47;;;;;;;25.40;45.67;100179.13;5114723;28;20057;-77
2021/07/26 04:56:12;;;;;;;6.10;5.13;;;;;;;25.44;46.02;100165.56;5131662;27;20115;-76
2021/07/26 04:58:38;;;;;;;5.35;4.82;;;;;;;25.58;45.54;100176.41;5114383;28;20023;-78
2021/07/26 05:01:03;;;;;;;7.40;4.93;;;;;;;25.75;45.49;100184.75;5114138;28;20038;-77
2021/07/26 05:03:36;;;;;;;6.05;5.05;;;;;;;25.92;45.09;100191.00;5114714;28;20024;-75
2021/07/26 05:06:05;;;;;;;5.35;4.85;;;;;;;26.06;44.85;100196.13;5114526;28;20031;-78
2021/07/26 05:08:31;;;;;;;8.13;5.47;;;;;;;26.12;45.13;100197.91;5131965;27;20038;-77
2021/07/26 05:10:59;;;;;;;9.30;5.72;;;;;;;26.23;44.74;100194.59;5114484;28;20428;-79
2021/07/26 05:13:33;;;;;;;6.57;4.95;;;;;;;26.36;44.76;100205.88;5115301;28;20023;-78
2021/07/26 05:16:03;;;;;;;6.80;5.22;;;;;;;26.38;45.17;100203.38;5115077;28;20052;-75
2021/07/26 05:18:33;;;;;;;6.93;6.30;;;;;;;26.17;46.64;100179.38;5115573;28;20023;-77
2021/07/26 05:21:09;;;;;;;6.82;6.20;;;;;;;26.09;46.93;100190.28;5132429;27;20114;-78
2021/07/26 05:23:37;;;;;;;7.45;6.22;;;;;;;26.23;46.98;100205.22;5131285;27;20446;-78
2021/07/26 05:26:06;;;;;;;7.53;6.45;;;;;;;26.64;46.70;100203.94;5115486;28;20024;-77
2021/07/26 05:28:35;;;;;;;8.18;5.55;;;;;;;27.05;46.08;100213.13;5115052;28;20035;-75
2021/07/26 05:31:06;;;;;;;6.97;5.72;;;;;;;27.22;46.12;100217.31;5132116;27;20027;-75
2021/07/26 05:33:37;;;;;;;7.90;5.82;;;;;;;27.23;46.62;100209.53;5115127;28;20355;-77
2021/07/26 05:36:05;;;;;;;6.53;5.93;;;;;;;27.24;46.93;100208.25;5114592;28;20126;-78
2021/07/26 05:38:36;;;;;;;7.63;6.90;;;;;;;27.19;46.98;100211.75;5114824;28;20038;-76
2021/07/26 05:41:06;;;;;;;8.43;6.10;;;;;;;27.16;46.52;100202.03;5115121;28;20145;-75
2021/07/26 05:43:37;;;;;;;7.00;5.53;;;;;;;27.12;46.51;100199.38;5115059;28;20028;-76
2021/07/26 05:46:05;;;;;;;14.65;6.40;;;;;;;26.96;46.56;100193.97;5115251;27;20035;-76
2021/07/26 05:48:31;;;;;;;7.30;6.32;;;;;;;26.96;47.62;100196.03;5114751;27;20030;-78
2021/07/26 05:51:03;;;;;;;10.57;6.03;;;;;;;26.92;47.95;100199.03;5131954;27;20394;-77
2021/07/26 05:53:32;;;;;;;7.75;6.63;;;;;;;27.02;46.92;100189.19;5114591;28;20088;-79
2021/07/26 05:56:04;;;;;;;6.65;5.90;;;;;;;27.02;46.91;100192.06;5131410;27;20024;-79
2021/07/26 05:58:41;;;;;;;7.80;5.88;;;;;;;27.02;46.62;100186.34;5114659;28;20027;-76
2021/07/26 06:01:54;;;;;;;8.93;5.93;;;;;;;27.04;47.28;100192.34;5114338;28;20088;-75
2021/07/26 06:04:00;;;;;;;7.05;6.35;;;;;;;27.13;46.83;100189.53;5111644;27;20523;-76
2021/07/26 06:06:31;;;;;;;7.43;5.95;;;;;;;27.14;46.67;100173.97;5114389;28;20024;-75
2021/07/26 06:09:01;;;;;;;6.30;5.70;;;;;;;27.13;47.08;100180.19;5114614;28;20035;-78
2021/07/26 06:11:27;;;;;;;6.93;6.15;;;;;;;27.17;47.21;100175.09;5114712;28;20114;-76
2021/07/26 06:13:53;;;;;;;8.77;5.68;;;;;;;27.15;47.00;100186.19;5114013;28;20426;-78
2021/07/26 06:16:18;;;;;;;8.18;5.25;;;;;;;27.11;47.39;100180.66;5113512;28;20056;-79
2021/07/26 06:18:49;;;;;;;7.28;6.15;;;;;;;27.11;47.63;100176.97;5131203;27;20114;-76
2021/07/26 06:21:17;;;;;;;7.57;6.78;;;;;;;27.14;47.59;100181.75;5115182;28;20059;-77
2021/07/26 06:23:43;;;;;;;11.65;6.60;;;;;;;27.17;48.05;100180.81;5114375;28;20027;-78
2021/07/26 06:26:13;;;;;;;7.80;7.00;;;;;;;27.20;48.81;100196.19;5114037;28;20466;-74
2021/07/26 06:28:41;;;;;;;8.70;6.25;;;;;;;27.27;49.06;100193.00;5114108;28;20199;-75
2021/07/26 06:31:12;;;;;;;6.55;5.88;;;;;;;27.34;49.13;100204.13;5113689;28;20059;-76
2021/07/26 06:33:40;;;;;;;8.30;6.43;;;;;;;27.48;49.11;100211.22;5113994;28;20027;-78
2021/07/26 06:36:08;;;;;;;6.75;5.38;;;;;;;27.63;48.71;100201.50;5113340;28;20104;-78
2021/07/26 06:38:34;;;;;;;8.57;6.03;;;;;;;27.80;48.41;100198.31;5114053;28;20050;-78
2021/07/26 06:41:05;;;;;;;6.45;5.53;;;;;;;27.98;47.48;100191.75;5113444;28;20474;-76
2021/07/26 06:43:35;;;;;;;6.95;6.35;;;;;;;28.12;46.68;100179.56;5130435;27;20028;-76
2021/07/26 06:46:09;;;;;;;9.93;7.32;;;;;;;28.18;47.13;100189.09;5113328;28;20491;-78
2021/07/26 06:48:39;;;;;;;10.25;6.18;;;;;;;28.40;47.02;100183.13;5113450;28;20047;-78
2021/07/26 06:51:05;;;;;;;8.63;6.13;;;;;;;28.40;45.48;100178.19;5113671;28;20034;-74
2021/07/26 06:53:36;;;;;;;8.20;5.50;;;;;;;28.44;44.75;100166.53;5113235;28;20054;-78
2021/07/26 06:56:09;;;;;;;7.75;5.50;;;;;;;28.60;44.49;100165.31;5113768;28;20035;-77
2021/07/26 06:58:39;;;;;;;13.40;8.45;;;;;;;28.56;44.78;100170.47;5113307;28;20023;-77
2021/07/26 07:01:10;;;;;;;14.75;11.05;;;;;;;28.17;46.19;100164.63;5130112;27;20024;-76
2021/07/26 07:03:35;;;;;;;12.02;9.77;;;;;;;28.25;45.24;100142.97;5113138;28;20028;-76
2021/07/26 07:06:09;;;;;;;8.77;7.63;;;;;;;28.71;43.28;100143.47;5112930;28;20057;-78
2021/07/26 07:08:38;;;;;;;11.20;8.07;;;;;;;29.17;42.32;100153.75;5114169;28;20023;-78
2021/07/26 07:11:15;;;;;;;11.50;9.10;;;;;;;29.03;42.87;100151.63;5112983;28;20089;-79
2021/07/26 07:13:43;;;;;;;11.98;8.80;;;;;;;29.27;41.28;100146.63;5113168;28;20061;-76
2021/07/26 07:16:17;;;;;;;10.77;8.50;;;;;;;29.30;42.03;100139.16;5129892;27;20116;-78
2021/07/26 07:18:46;;;;;;;12.60;9.73;;;;;;;29.30;40.85;100136.28;5129908;27;20124;-77
2021/07/26 07:21:17;;;;;;;11.25;9.10;;;;;;;29.48;40.99;100124.59;5130681;27;20027;-78
2021/07/26 07:23:43;;;;;;;10.23;8.50;;;;;;;29.71;40.15;100117.97;5112684;28;20030;-80
2021/07/26 07:26:12;;;;;;;12.52;8.98;;;;;;;30.25;39.29;100109.91;5129901;27;20028;-78
2021/07/26 07:28:41;;;;;;;12.48;8.82;;;;;;;30.67;38.19;100111.47;5130134;27;20016;-79
2021/07/26 07:31:09;;;;;;;11.82;9.63;;;;;;;31.06;37.51;100102.56;5112586;28;20518;-79
2021/07/26 07:33:38;;;;;;;10.60;8.88;;;;;;;31.59;36.76;100101.22;5113741;28;20137;-79
2021/07/26 07:36:06;;;;;;;12.52;9.98;;;;;;;31.98;35.87;100097.84;5113490;28;20032;-75
2021/07/26 07:38:35;;;;;;;13.18;8.65;;;;;;;32.66;33.85;100108.41;5112448;28;20024;-80
2021/07/26 07:41:04;;;;;;;10.23;8.73;;;;;;;33.03;33.59;100101.72;5113934;28;20131;-80
2021/07/26 07:43:33;;;;;;;9.50;7.68;;;;;;;33.73;31.59;100117.25;5112566;28;20115;-77
2021/07/26 07:45:59;;;;;;;8.50;7.63;;;;;;;34.17;30.68;100115.63;5112899;28;20106;-78
2021/07/26 07:48:29;;;;;;;13.15;7.07;;;;;;;33.99;31.10;100123.53;5112262;28;20537;-76
2021/07/26 07:50:56;;;;;;;9.00;6.82;;;;;;;35.06;28.94;100114.47;5113589;28;20032;-77
2021/07/26 07:53:27;;;;;;;8.50;6.95;;;;;;;35.54;27.77;100108.09;5129570;28;20024;-79
2021/07/26 07:55:55;;;;;;;9.52;6.10;;;;;;;36.17;26.13;100106.19;5112446;28;20080;-75
2021/07/26 07:58:21;;;;;;;6.35;5.75;;;;;;;37.06;25.34;100106.34;5112444;28;20514;-75
2021/07/26 08:00:55;;;;;;;8.85;5.68;;;;;;;36.68;26.02;100109.25;5112991;28;20114;-79
2021/07/26 08:03:21;;;;;;;7.65;6.20;;;;;;;36.07;26.72;100096.28;5112722;28;20039;-79
2021/07/26 08:05:48;;;;;;;7.90;6.43;;;;;;;35.76;27.22;100107.09;5129984;28;20350;-78
2021/07/26 08:08:19;;;;;;;7.28;6.45;;;;;;;35.01;26.81;100110.28;5112433;28;20031;-80
2021/07/26 08:10:48;;;;;;;7.27;6.23;;;;;;;35.06;27.50;100102.91;5129686;28;20126;-79
2021/07/26 08:13:24;;;;;;;6.97;6.28;;;;;;;34.14;27.61;100108.78;5112337;28;20039;-75
2021/07/26 08:15:56;;;;;;;7.75;5.82;;;;;;;34.22;28.28;100109.81;5129182;28;20474;-75
2021/07/26 08:18:22;;;;;;;6.93;5.75;;;;;;;34.37;28.35;100107.41;5129438;28;20102;-75
2021/07/26 08:20:48;;;;;;;9.55;6.32;;;;;;;34.33;28.19;100112.66;5113569;28;20036;-77
2021/07/26 08:23:19;;;;;;;6.10;5.43;;;;;;;34.16;27.85;100096.72;5129272;28;20028;-78
2021/07/26 08:25:50;;;;;;;6.13;5.53;;;;;;;34.50;27.43;100126.28;5113779;28;20031;-76
2021/07/26 08:28:21;;;;;;;5.72;5.22;;;;;;;34.18;27.46;100129.50;5112154;28;20020;-76
2021/07/26 08:30:52;;;;;;;6.65;6.00;;;;;;;34.28;26.88;100145.25;5112381;28;20059;-76
2021/07/26 08:33:20;;;;;;;6.30;5.70;;;;;;;34.53;25.94;100146.25;5112060;28;20032;-75
2021/07/26 08:35:48;;;;;;;7.68;5.70;;;;;;;35.35;24.35;100160.00;5111901;28;20041;-75
2021/07/26 08:38:18;;;;;;;10.13;8.48;;;;;;;35.18;23.95;100168.78;5129225;28;20386;-79
2021/07/26 08:40:45;;;;;;;15.52;10.05;;;;;;;35.20;24.18;100171.13;5112118;28;20056;-75
2021/07/26 08:43:16;;;;;;;9.20;8.23;;;;;;;35.87;23.41;100182.25;5111988;28;20032;-79
2021/07/26 08:45:45;;;;;;;6.63;6.03;;;;;;;36.74;22.32;100191.09;5111724;28;20039;-80
2021/07/26 08:48:14;;;;;;;7.88;5.90;;;;;;;37.27;21.59;100187.78;5113362;27;20054;-77
2021/07/26 08:50:49;;;;;;;7.43;6.28;;;;;;;38.08;20.80;100202.88;5112511;28;20031;-78
2021/07/26 08:53:20;;;;;;;10.65;6.32;;;;;;;38.76;20.55;100199.50;5111990;28;20028;-78
2021/07/26 08:55:51;;;;;;;6.32;5.72;;;;;;;38.81;19.89;100201.50;5095510;28;20028;-79
2021/07/26 08:58:19;;;;;;;7.78;6.22;;;;;;;38.56;20.97;100214.69;5113423;28;20377;-76
2021/07/26 09:00:50;;;;;;;7.97;6.97;;;;;;;37.86;21.13;100212.75;5115502;28;20024;-79
2021/07/26 09:03:18;;;;;;;7.33;6.40;;;;;;;37.91;21.07;100217.69;5115386;28;20024;-77
2021/07/26 09:05:44;;;;;;;7.20;6.38;;;;;;;37.90;22.51;100221.94;5115398;28;20028;-79
2021/07/26 09:08:12;;;;;;;7.30;6.20;;;;;;;37.28;22.17;100213.34;5116012;28;20028;-78
2021/07/26 09:10:43;;;;;;;7.85;6.13;;;;;;;37.53;22.10;100204.56;5115689;28;20462;-77
2021/07/26 09:13:12;;;;;;;6.20;4.85;;;;;;;37.54;21.93;100209.81;5132465;27;20038;-80
2021/07/26 09:15:41;;;;;;;10.38;4.65;;;;;;;37.04;22.18;100222.13;5132060;27;20086;-75
2021/07/26 09:18:14;;;;;;;5.07;4.40;;;;;;;36.87;22.23;100217.31;5115508;28;20055;-80
2021/07/26 09:20:51;;;;;;;6.78;4.90;;;;;;;36.64;22.17;100218.88;5098377;28;20043;-76
2021/07/26 09:23:21;;;;;;;4.75;4.35;;;;;;;37.25;22.49;100223.16;5115016;28;20130;-77
2021/07/26 09:25:48;;;;;;;6.18;4.63;;;;;;;37.31;21.47;100223.06;5115634;28;20103;-77
2021/07/26 09:28:20;;;;;;;4.72;4.28;;;;;;;37.76;21.42;100229.00;5115210;28;20026;-76
2021/07/26 09:30:51;;;;;;;4.97;4.57;;;;;;;38.47;20.39;100239.19;5132139;27;20027;-80
2021/07/26 09:33:28;;;;;;;6.22;4.53;;;;;;;38.30;21.29;100233.69;5131990;27;20123;-80
2021/07/26 09:36:12;;;;;;;4.53;4.10;;;;;;;38.08;21.32;100240.63;5115350;28;20382;-79
2021/07/26 09:38:42;;;;;;;4.57;4.10;;;;;;;39.07;20.45;100240.63;5115409;28;20031;-81
2021/07/26 09:41:11;;;;;;;4.57;4.18;;;;;;;38.66;20.08;100239.06;5112263;28;20106;-77
2021/07/26 09:43:42;;;;;;;5.22;3.90;;;;;;;38.09;21.33;100226.88;5115086;28;20469;-75
2021/07/26 09:46:27;;;;;;;5.95;5.35;;;;;;;38.16;20.62;100232.84;5114849;28;20059;-79
2021/07/26 09:49:37;;;;;;;12.27;5.10;;;;;;;37.48;21.60;100238.91;5132010;27;20059;-75
2021/07/26 09:52:09;;;;;;;6.32;4.38;;;;;;;37.98;21.33;100239.47;5000035;28;20098;-77
2021/07/26 09:54:46;;;;;;;7.38;4.50;;;;;;;38.05;19.87;100238.06;5107500;28;20427;-79
2021/07/26 09:57:23;;;;;;;5.57;3.92;;;;;;;38.58;19.19;100230.22;5131827;27;20038;-80
2021/07/26 09:59:52;;;;;;;8.73;4.90;;;;;;;38.43;19.56;100230.78;5115467;27;20058;-75
2021/07/26 10:02:25;;;;;;;4.50;4.03;;;;;;;39.10;19.46;100236.56;5114715;27;20035;-78
2021/07/26 10:04:54;;;;;;;4.10;3.80;;;;;;;38.67;18.69;100234.81;5131516;27;20126;-77
2021/07/26 10:07:23;;;;;;;5.03;4.53;;;;;;;39.07;18.75;100235.59;5114281;28;20466;-76
2021/07/26 10:09:51;;;;;;;6.05;3.97;;;;;;;39.43;17.99;100238.00;5113452;28;20046;-77
2021/07/26 10:12:19;;;;;;;6.57;4.50;;;;;;;38.85;18.58;100239.75;5114524;28;20484;-78
2021/07/26 10:14:49;;;;;;;8.32;4.88;;;;;;;38.87;19.28;100245.00;5113986;28;20077;-79
2021/07/26 10:17:14;;;;;;;4.88;4.35;;;;;;;39.69;18.59;100243.75;5114625;28;20181;-78
2021/07/26 10:19:40;;;;;;;4.53;4.05;;;;;;;40.33;17.70;100245.34;5114129;28;20492;-80
2021/07/26 10:22:10;;;;;;;6.75;4.47;;;;;;;40.71;17.67;100239.00;5114102;28;20110;-80
2021/07/26 10:24:47;;;;;;;4.72;4.28;;;;;;;40.43;17.73;100237.63;5113835;28;20110;-80
2021/07/26 10:27:24;;;;;;;10.13;4.60;;;;;;;40.36;18.48;100244.19;5113654;28;20047;-75
2021/07/26 10:29:56;;;;;;;6.10;5.15;;;;;;;40.00;17.71;100247.72;5115061;28;20027;-75
2021/07/26 10:32:32;;;;;;;5.18;4.72;;;;;;;40.23;17.72;100247.19;5114268;28;20031;-80
2021/07/26 10:34:58;;;;;;;5.25;4.70;;;;;;;40.37;17.74;100248.66;5114161;28;20484;-80
2021/07/26 10:37:39;;;;;;;8.43;5.57;;;;;;;40.48;17.69;100262.91;5113748;28;20027;-78
2021/07/26 10:40:21;;;;;;;5.78;4.50;;;;;;;40.51;17.83;100255.97;5113873;28;20561;-75
2021/07/26 10:42:50;;;;;;;4.78;4.38;;;;;;;40.55;16.64;100268.06;5115078;28;20081;-79
2021/07/26 10:45:31;;;;;;;4.95;4.43;;;;;;;41.17;16.99;100265.53;5130909;27;20114;-75
2021/07/26 10:48:21;;;;;;;4.28;3.88;;;;;;;41.58;16.21;100250.72;5113934;28;20036;-77
2021/07/26 10:50:52;;;;;;;5.38;4.18;;;;;;;41.56;12.28;100256.38;5113886;28;20024;-80
2021/07/26 10:53:49;;;;;;;6.78;3.40;;;;;;;41.02;12.07;100252.44;5113390;28;20027;-75
2021/07/26 10:56:19;;;;;;;3.60;3.30;;;;;;;41.53;10.89;100253.81;5078529;28;20032;-75
2021/07/26 10:58:58;;;;;;;4.15;3.25;;;;;;;41.82;9.66;100246.53;5113404;27;20032;-77
2021/07/26 11:01:25;;;;;;;3.40;3.10;;;;;;;42.08;9.48;100248.31;5114323;28;20035;-75
2021/07/26 11:04:00;;;;;;;3.78;3.05;;;;;;;41.97;9.44;100251.59;5113299;28;20035;-75
2021/07/26 11:06:35;;;;;;;3.25;3.05;;;;;;;42.05;9.54;100249.47;5113783;28;20137;-75
2021/07/26 11:09:26;;;;;;;2.97;2.75;;;;;;;41.86;8.93;100254.88;5114111;28;20042;-80
2021/07/26 11:11:53;;;;;;;3.05;2.85;;;;;;;41.66;9.25;100255.78;5105004;28;20457;-80
2021/07/26 11:14:20;;;;;;;3.55;3.25;;;;;;;41.44;10.69;100249.31;5113139;28;20058;-79
2021/07/26 11:16:55;;;;;;;3.65;2.95;;;;;;;40.76;10.64;100244.69;5113205;28;20100;-77
2021/07/26 11:19:29;;;;;;;5.60;3.00;;;;;;;40.03;10.58;100237.84;5112819;28;20039;-75
2021/07/26 11:21:57;;;;;;;3.50;3.20;;;;;;;39.90;11.24;100243.78;5111871;28;20028;-77
2021/07/26 11:24:49;;;;;;;4.82;2.92;;;;;;;39.64;11.06;100238.06;5113443;28;20090;-76
2021/07/26 11:27:38;;;;;;;5.38;3.50;;;;;;;39.61;13.06;100244.97;5112574;28;20042;-79
2021/07/26 11:30:12;;;;;;;5.85;3.47;;;;;;;38.88;15.15;100237.84;5112694;28;20252;-78
2021/07/26 11:32:40;;;;;;;5.05;3.42;;;;;;;39.20;15.51;100244.31;5112865;28;20035;-78
2021/07/26 11:35:11;;;;;;;3.67;3.35;;;;;;;39.82;14.55;100242.91;5112944;28;20068;-74
2021/07/26 11:37:39;;;;;;;3.87;3.57;;;;;;;40.22;13.55;100237.69;5113860;28;20027;-79
2021/07/26 11:40:07;;;;;;;6.78;3.45;;;;;;;40.42;13.78;100233.13;5112691;28;20038;-80